createdAt,value
2017-09-07T00:00:54.765Z,0
2017-09-07T00:02:05.054Z,0
2017-09-07T00:03:15.323Z,0
2017-09-07T00:04:25.605Z,0
2017-09-07T00:05:35.553Z,0
2017-09-07T00:06:46.079Z,0
2017-09-07T00:07:56.335Z,0
2017-09-07T00:09:05.996Z,0
2017-09-07T00:10:16.266Z,0
2017-09-07T00:11:26.232Z,0
2017-09-07T00:12:36.133Z,0
2017-09-07T00:13:46.399Z,0
2017-09-07T00:14:56.057Z,0
2017-09-07T00:16:06.018Z,0
2017-09-07T00:17:15.961Z,0
2017-09-07T00:18:26.492Z,0
2017-09-07T00:19:36.459Z,0
2017-09-07T00:20:46.720Z,0
2017-09-07T00:21:57.010Z,0
2017-09-07T00:23:07.330Z,0
2017-09-07T00:24:17.541Z,0
2017-09-07T00:25:27.822Z,0
2017-09-07T00:26:37.786Z,0
2017-09-07T00:27:47.727Z,0
2017-09-07T00:28:58.018Z,0
2017-09-07T00:30:08.535Z,0
2017-09-07T00:31:18.804Z,0
2017-09-07T00:32:29.093Z,0
2017-09-07T00:33:39.042Z,0
2017-09-07T00:34:49.012Z,0
2017-09-07T00:35:59.605Z,0
2017-09-07T00:37:09.574Z,0
2017-09-07T00:38:19.539Z,0
2017-09-07T00:39:29.490Z,0
2017-09-07T00:40:39.767Z,0
2017-09-07T00:41:49.966Z,0
2017-09-07T00:43:00.261Z,0
2017-09-07T00:44:09.913Z,0
2017-09-07T00:45:20.188Z,0
2017-09-07T00:46:30.136Z,0
2017-09-07T00:47:40.662Z,0
2017-09-07T00:48:50.940Z,0
2017-09-07T00:50:00.886Z,0
2017-09-07T00:51:11.163Z,0
2017-09-07T00:52:21.429Z,0
2017-09-07T00:53:31.947Z,0
2017-09-07T00:54:41.914Z,0
2017-09-07T00:55:52.193Z,0
2017-09-07T00:57:02.145Z,0
2017-09-07T00:58:12.102Z,0
2017-09-07T00:59:22.319Z,0
2017-09-07T01:00:32.270Z,0
2017-09-07T01:01:42.231Z,0
2017-09-07T01:02:52.177Z,0
2017-09-07T01:04:02.432Z,0
2017-09-07T01:05:12.988Z,0
2017-09-07T01:06:22.606Z,0
2017-09-07T01:07:32.857Z,0
2017-09-07T01:08:42.786Z,0
2017-09-07T01:09:52.718Z,0
2017-09-07T01:11:03.225Z,0
2017-09-07T01:12:13.155Z,0
2017-09-07T01:13:23.091Z,0
2017-09-07T01:14:33.337Z,0
2017-09-07T01:15:43.591Z,0
2017-09-07T01:16:53.769Z,0
2017-09-07T01:18:04.028Z,0
2017-09-07T01:19:13.959Z,0
2017-09-07T01:20:23.888Z,0
2017-09-07T01:21:34.136Z,0
2017-09-07T01:22:44.326Z,0
2017-09-07T01:23:54.572Z,0
2017-09-07T01:25:04.825Z,0
2017-09-07T01:26:14.755Z,0
2017-09-07T01:27:25.011Z,0
2017-09-07T01:28:35.529Z,0
2017-09-07T01:29:45.775Z,0
2017-09-07T01:30:56.025Z,0
2017-09-07T01:32:06.281Z,0
2017-09-07T01:33:16.210Z,0
2017-09-07T01:34:26.724Z,0
2017-09-07T01:35:36.339Z,0
2017-09-07T01:36:46.587Z,0
2017-09-07T01:37:56.847Z,0
2017-09-07T01:39:07.095Z,0
2017-09-07T01:40:17.275Z,0
2017-09-07T01:41:27.520Z,0
2017-09-07T01:42:37.764Z,0
2017-09-07T01:43:47.689Z,0
2017-09-07T01:44:57.619Z,0
2017-09-07T01:46:07.806Z,0
2017-09-07T01:47:17.756Z,0
2017-09-07T01:48:27.699Z,0
2017-09-07T01:49:37.948Z,0
2017-09-07T01:50:47.886Z,0
2017-09-07T01:51:58.410Z,0
2017-09-07T01:53:08.344Z,0
2017-09-07T01:54:18.602Z,0
2017-09-07T01:55:28.530Z,0
2017-09-07T01:56:38.468Z,0
2017-09-07T01:57:48.975Z,0
2017-09-07T01:58:58.911Z,0
2017-09-07T02:00:08.841Z,0
2017-09-07T02:01:19.091Z,0
2017-09-07T02:02:29.335Z,0
2017-09-07T02:03:39.824Z,0
2017-09-07T02:04:49.761Z,0
2017-09-07T02:05:59.690Z,0
2017-09-07T02:07:09.628Z,0
2017-09-07T02:08:19.559Z,0
2017-09-07T02:09:30.110Z,0
2017-09-07T02:10:40.355Z,0
2017-09-07T02:11:50.286Z,0
2017-09-07T02:13:00.539Z,0
2017-09-07T02:14:10.787Z,0
2017-09-07T02:15:20.662Z,0
2017-09-07T02:16:30.905Z,0
2017-09-07T02:17:40.839Z,0
2017-09-07T02:18:50.781Z,0
2017-09-07T02:20:01.027Z,0
2017-09-07T02:21:10.892Z,0
2017-09-07T02:22:21.130Z,0
2017-09-07T02:23:31.076Z,0
2017-09-07T02:24:41.339Z,0
2017-09-07T02:25:51.591Z,0
2017-09-07T02:27:01.776Z,0
2017-09-07T02:28:12.039Z,0
2017-09-07T02:29:21.972Z,0
2017-09-07T02:30:32.222Z,0
2017-09-07T02:31:42.476Z,0
2017-09-07T02:32:52.967Z,0
2017-09-07T02:34:02.898Z,0
2017-09-07T02:35:13.149Z,0
2017-09-07T02:36:23.407Z,0
2017-09-07T02:37:33.348Z,0
2017-09-07T02:38:43.851Z,0
2017-09-07T02:39:54.107Z,0
2017-09-07T02:41:04.038Z,0
2017-09-07T02:42:14.304Z,0
2017-09-07T02:43:24.563Z,0
2017-09-07T02:44:35.064Z,0
2017-09-07T02:45:44.998Z,0
2017-09-07T02:46:54.933Z,0
2017-09-07T02:48:04.870Z,0
2017-09-07T02:49:14.809Z,0
2017-09-07T02:50:25.321Z,0
2017-09-07T02:51:35.581Z,0
2017-09-07T02:52:45.832Z,0
2017-09-07T02:53:55.777Z,0
2017-09-07T02:55:06.026Z,0
2017-09-07T02:56:15.589Z,0
2017-09-07T02:57:25.841Z,0
2017-09-07T02:58:36.101Z,0
2017-09-07T02:59:46.363Z,0
2017-09-07T03:00:56.602Z,0
2017-09-07T03:02:07.097Z,0
2017-09-07T03:03:17.041Z,0
2017-09-07T03:04:27.284Z,0
2017-09-07T03:05:37.217Z,0
2017-09-07T03:06:47.477Z,0
2017-09-07T03:07:57.983Z,0
2017-09-07T03:09:08.228Z,0
2017-09-07T03:10:18.165Z,0
2017-09-07T03:11:28.101Z,0
2017-09-07T03:12:38.396Z,0
2017-09-07T03:13:48.906Z,0
2017-09-07T03:14:59.156Z,0
2017-09-07T03:16:09.409Z,0
2017-09-07T03:17:19.355Z,0
2017-09-07T03:18:29.292Z,0
2017-09-07T03:19:39.793Z,0
2017-09-07T03:20:50.045Z,0
2017-09-07T03:21:59.972Z,0
2017-09-07T03:23:10.226Z,0
2017-09-07T03:24:20.159Z,0
2017-09-07T03:25:30.668Z,0
2017-09-07T03:26:40.600Z,0
2017-09-07T03:27:50.857Z,0
2017-09-07T03:29:01.140Z,0
2017-09-07T03:30:11.390Z,0
2017-09-07T03:31:21.592Z,0
2017-09-07T03:32:31.532Z,0
2017-09-07T03:33:41.777Z,0
2017-09-07T03:34:52.025Z,0
2017-09-07T03:36:02.280Z,0
2017-09-07T03:37:12.466Z,0
2017-09-07T03:38:22.729Z,0
2017-09-07T03:39:32.985Z,0
2017-09-07T03:40:43.470Z,0
2017-09-07T03:41:53.728Z,0
2017-09-07T03:43:04.227Z,0
2017-09-07T03:44:13.849Z,0
2017-09-07T03:45:23.785Z,0
2017-09-07T03:46:33.743Z,0
2017-09-07T03:47:43.985Z,0
2017-09-07T03:48:54.168Z,0
2017-09-07T03:50:04.102Z,0
2017-09-07T03:51:13.715Z,0
2017-09-07T03:52:23.686Z,0
2017-09-07T03:53:33.634Z,0
2017-09-07T03:54:44.129Z,0
2017-09-07T03:55:54.366Z,0
2017-09-07T03:57:04.612Z,4
2017-09-07T03:58:14.561Z,4
2017-09-07T03:59:23.868Z,4
2017-09-07T04:00:34.084Z,8
2017-09-07T04:01:44.338Z,4
2017-09-07T04:02:54.590Z,8
2017-09-07T04:04:04.526Z,12
2017-09-07T04:05:14.155Z,12
2017-09-07T04:06:24.339Z,12
2017-09-07T04:07:34.270Z,16
2017-09-07T04:08:44.523Z,20
2017-09-07T04:09:54.773Z,28
2017-09-07T04:11:04.747Z,32
2017-09-07T04:12:14.941Z,40
2017-09-07T04:13:25.202Z,48
2017-09-07T04:14:35.133Z,60
2017-09-07T04:15:45.069Z,72
2017-09-07T04:16:54.691Z,84
2017-09-07T04:18:04.885Z,104
2017-09-07T04:19:15.141Z,116
2017-09-07T04:20:25.080Z,136
2017-09-07T04:21:35.330Z,164
2017-09-07T04:22:44.947Z,184
2017-09-07T04:23:55.135Z,212
2017-09-07T04:25:05.064Z,244
2017-09-07T04:26:14.993Z,276
2017-09-07T04:27:24.950Z,312
2017-09-07T04:28:34.891Z,348
2017-09-07T04:29:45.072Z,380
2017-09-07T04:30:55.330Z,424
2017-09-07T04:32:05.602Z,464
2017-09-07T04:33:15.842Z,512
2017-09-07T04:34:25.469Z,568
2017-09-07T04:35:35.969Z,604
2017-09-07T04:36:45.919Z,660
2017-09-07T04:37:56.166Z,724
2017-09-07T04:39:06.424Z,752
2017-09-07T04:40:16.669Z,800
2017-09-07T04:41:27.175Z,876
2017-09-07T04:42:37.440Z,960
2017-09-07T04:43:47.380Z,996
2017-09-07T04:44:57.633Z,1100
2017-09-07T04:46:07.894Z,1168
2017-09-07T04:47:18.075Z,1228
2017-09-07T04:48:28.008Z,1404
2017-09-07T04:49:38.255Z,1412
2017-09-07T04:50:48.499Z,1500
2017-09-07T04:51:58.769Z,1696
2017-09-07T04:53:08.958Z,1768
2017-09-07T04:54:19.203Z,1896
2017-09-07T04:55:29.152Z,2096
2017-09-07T04:56:39.405Z,2212
2017-09-07T04:57:49.372Z,2220
2017-09-07T04:58:59.873Z,2328
2017-09-07T05:00:10.121Z,2376
2017-09-07T05:01:20.065Z,2392
2017-09-07T05:02:30.014Z,2476
2017-09-07T05:03:39.948Z,2632
2017-09-07T05:04:50.452Z,2436
2017-09-07T05:06:00.405Z,2428
2017-09-07T05:07:10.658Z,2188
2017-09-07T05:08:20.907Z,2112
2017-09-07T05:09:30.837Z,2160
2017-09-07T05:10:41.017Z,2204
2017-09-07T05:11:50.943Z,2332
2017-09-07T05:13:00.565Z,2428
2017-09-07T05:14:10.511Z,2828
2017-09-07T05:15:20.762Z,3152
2017-09-07T05:16:31.266Z,3672
2017-09-07T05:17:41.214Z,3644
2017-09-07T05:18:50.831Z,3740
2017-09-07T05:20:01.094Z,4108
2017-09-07T05:21:11.367Z,3848
2017-09-07T05:22:21.571Z,4324
2017-09-07T05:23:31.860Z,4112
2017-09-07T05:24:42.110Z,4152
2017-09-07T05:25:52.365Z,3748
2017-09-07T05:27:02.311Z,4300
2017-09-07T05:28:12.821Z,4644
2017-09-07T05:29:23.066Z,4632
2017-09-07T05:30:33.000Z,4640
2017-09-07T05:31:43.254Z,4344
2017-09-07T05:32:53.186Z,3936
2017-09-07T05:34:03.693Z,4976
2017-09-07T05:35:13.937Z,5232
2017-09-07T05:36:23.883Z,4912
2017-09-07T05:37:34.128Z,3988
2017-09-07T05:38:44.390Z,4428
2017-09-07T05:39:54.885Z,5484
2017-09-07T05:41:05.143Z,5060
2017-09-07T05:42:14.783Z,5080
2017-09-07T05:43:25.039Z,5808
2017-09-07T05:44:35.285Z,5884
2017-09-07T05:45:45.505Z,6348
2017-09-07T05:46:55.808Z,6960
2017-09-07T05:48:05.741Z,8152
2017-09-07T05:49:16.004Z,7784
2017-09-07T05:50:26.277Z,8136
2017-09-07T05:51:36.782Z,8440
2017-09-07T05:52:46.723Z,8792
2017-09-07T05:53:56.670Z,8832
2017-09-07T05:55:06.947Z,7884
2017-09-07T05:56:16.914Z,8308
2017-09-07T05:57:27.504Z,8296
2017-09-07T05:58:37.434Z,6748
2017-09-07T05:59:47.403Z,6936
2017-09-07T06:00:57.693Z,6988
2017-09-07T06:02:07.963Z,6000
2017-09-07T06:03:18.511Z,5784
2017-09-07T06:04:28.768Z,5936
2017-09-07T06:05:39.019Z,6356
2017-09-07T06:06:49.275Z,6004
2017-09-07T06:07:59.212Z,5156
2017-09-07T06:09:09.736Z,4496
2017-09-07T06:10:19.675Z,4136
2017-09-07T06:11:29.928Z,4520
2017-09-07T06:12:40.198Z,3412
2017-09-07T06:13:50.136Z,3292
2017-09-07T06:15:00.630Z,2964
2017-09-07T06:16:10.568Z,3876
2017-09-07T06:17:20.827Z,3836
2017-09-07T06:18:31.089Z,4024
2017-09-07T06:19:41.061Z,5044
2017-09-07T06:20:51.575Z,4992
2017-09-07T06:22:01.830Z,5800
2017-09-07T06:23:12.086Z,6508
2017-09-07T06:24:22.334Z,6044
2017-09-07T06:25:32.265Z,5060
2017-09-07T06:26:42.804Z,7024
2017-09-07T06:27:53.059Z,9772
2017-09-07T06:29:03.317Z,9628
2017-09-07T06:30:13.266Z,11068
2017-09-07T06:31:23.520Z,12692
2017-09-07T06:32:33.703Z,11804
2017-09-07T06:33:43.633Z,12556
2017-09-07T06:34:53.917Z,11320
2017-09-07T06:36:04.164Z,10284
2017-09-07T06:37:14.101Z,9216
2017-09-07T06:38:24.601Z,6860
2017-09-07T06:39:34.232Z,7820
2017-09-07T06:40:44.504Z,10508
2017-09-07T06:41:54.751Z,9508
2017-09-07T06:43:05.001Z,9928
2017-09-07T06:44:15.186Z,9680
2017-09-07T06:45:25.118Z,9632
2017-09-07T06:46:35.381Z,11352
2017-09-07T06:47:45.641Z,10132
2017-09-07T06:48:54.956Z,10312
2017-09-07T06:50:05.678Z,9028
2017-09-07T06:51:15.616Z,8120
2017-09-07T06:52:25.872Z,10504
2017-09-07T06:53:35.811Z,9908
2017-09-07T06:54:46.066Z,9812
2017-09-07T06:55:56.620Z,9940
2017-09-07T06:57:06.883Z,10612
2017-09-07T06:58:17.146Z,12176
2017-09-07T06:59:27.406Z,11812
2017-09-07T07:00:37.695Z,13764
2017-09-07T07:01:48.207Z,14172
2017-09-07T07:02:58.197Z,13680
2017-09-07T07:04:08.489Z,15108
2017-09-07T07:05:18.759Z,15896
2017-09-07T07:06:29.021Z,14028
2017-09-07T07:07:39.320Z,12792
2017-09-07T07:08:49.669Z,12216
2017-09-07T07:10:00.035Z,12328
2017-09-07T07:11:10.040Z,12000
2017-09-07T07:12:20.330Z,12304
2017-09-07T07:13:30.892Z,12960
2017-09-07T07:14:41.199Z,15376
2017-09-07T07:15:51.453Z,16036
2017-09-07T07:17:01.707Z,15936
2017-09-07T07:18:11.702Z,13904
2017-09-07T07:19:22.230Z,14600
2017-09-07T07:20:32.492Z,18240
2017-09-07T07:21:42.739Z,17152
2017-09-07T07:22:53.036Z,15148
2017-09-07T07:24:03.576Z,18272
2017-09-07T07:25:13.779Z,18208
2017-09-07T07:26:24.080Z,17664
2017-09-07T07:27:34.091Z,19936
2017-09-07T07:28:43.754Z,19744
2017-09-07T07:29:54.025Z,16160
2017-09-07T07:31:04.538Z,18080
2017-09-07T07:32:14.845Z,20960
2017-09-07T07:33:25.171Z,22048
2017-09-07T07:34:35.190Z,22912
2017-09-07T07:35:45.460Z,22112
2017-09-07T07:36:56.032Z,22752
2017-09-07T07:38:06.608Z,19424
2017-09-07T07:39:16.884Z,14224
2017-09-07T07:40:27.610Z,13452
2017-09-07T07:41:37.281Z,16640
2017-09-07T07:42:48.115Z,19808
2017-09-07T07:43:58.098Z,17512
2017-09-07T07:45:08.391Z,17824
2017-09-07T07:46:18.705Z,19296
2017-09-07T07:47:28.991Z,21024
2017-09-07T07:48:39.520Z,21856
2017-09-07T07:49:49.793Z,26816
2017-09-07T07:50:59.774Z,26240
2017-09-07T07:52:10.036Z,28160
2017-09-07T07:53:20.016Z,28448
2017-09-07T07:54:30.521Z,24416
2017-09-07T07:55:40.497Z,25856
2017-09-07T07:56:50.762Z,23712
2017-09-07T07:58:01.044Z,24416
2017-09-07T07:59:10.994Z,25792
2017-09-07T08:00:21.527Z,26528
2017-09-07T08:01:31.516Z,25472
2017-09-07T08:02:41.805Z,24352
2017-09-07T08:03:51.775Z,24000
2017-09-07T08:05:02.045Z,25376
2017-09-07T08:06:12.236Z,27968
2017-09-07T08:07:22.535Z,28992
2017-09-07T08:08:32.848Z,30528
2017-09-07T08:09:43.115Z,30048
2017-09-07T08:10:53.385Z,28384
2017-09-07T08:12:03.681Z,26944
2017-09-07T08:13:13.966Z,28096
2017-09-07T08:14:23.608Z,30560
2017-09-07T08:15:33.866Z,30720
2017-09-07T08:16:43.499Z,34272
2017-09-07T08:17:54.008Z,28160
2017-09-07T08:19:04.252Z,25088
2017-09-07T08:20:14.527Z,31744
2017-09-07T08:21:24.803Z,31744
2017-09-07T08:22:34.799Z,30016
2017-09-07T08:23:45.335Z,31776
2017-09-07T08:24:55.291Z,27648
2017-09-07T08:26:05.263Z,32352
2017-09-07T08:27:15.571Z,37664
2017-09-07T08:28:25.871Z,28096
2017-09-07T08:29:36.103Z,28640
2017-09-07T08:30:45.751Z,28000
2017-09-07T08:31:55.714Z,26688
2017-09-07T08:33:06.005Z,27488
2017-09-07T08:34:16.334Z,28960
2017-09-07T08:35:26.232Z,37632
2017-09-07T08:36:36.195Z,23104
2017-09-07T08:37:45.854Z,24256
2017-09-07T08:38:56.154Z,31104
2017-09-07T08:40:06.433Z,54912
2017-09-07T08:41:16.941Z,59008
2017-09-07T08:42:26.899Z,28256
2017-09-07T08:43:37.202Z,28704
2017-09-07T08:44:47.517Z,43040
2017-09-07T08:45:57.856Z,30400
2017-09-07T08:47:08.083Z,30208
2017-09-07T08:48:18.064Z,43072
2017-09-07T08:49:28.321Z,26112
2017-09-07T08:50:38.266Z,27616
2017-09-07T08:51:47.910Z,24960
2017-09-07T08:52:58.423Z,27776
2017-09-07T08:54:08.412Z,27776
2017-09-07T08:55:18.070Z,40768
2017-09-07T08:56:28.331Z,24832
2017-09-07T08:57:38.617Z,31392
2017-09-07T08:58:49.130Z,28352
2017-09-07T08:59:59.379Z,42848
2017-09-07T09:01:09.708Z,36256
2017-09-07T09:02:19.689Z,31328
2017-09-07T09:03:29.946Z,36800
2017-09-07T09:04:40.723Z,43136
2017-09-07T09:05:50.992Z,60192
2017-09-07T09:07:01.251Z,28608
2017-09-07T09:08:11.539Z,31872
2017-09-07T09:09:21.498Z,30944
2017-09-07T09:10:31.693Z,22432
2017-09-07T09:11:41.994Z,22400
2017-09-07T09:12:51.937Z,24704
2017-09-07T09:14:01.900Z,19744
2017-09-07T09:15:12.191Z,19232
2017-09-07T09:16:22.709Z,28064
2017-09-07T09:17:32.982Z,89600
2017-09-07T09:18:42.604Z,68128
2017-09-07T09:19:52.876Z,67424
2017-09-07T09:21:02.831Z,31360
2017-09-07T09:22:13.017Z,94848
2017-09-07T09:23:23.285Z,39168
2017-09-07T09:24:33.564Z,66304
2017-09-07T09:25:43.831Z,90720
2017-09-07T09:26:53.778Z,82528
2017-09-07T09:28:03.980Z,27232
2017-09-07T09:29:13.921Z,88224
2017-09-07T09:30:24.186Z,29344
2017-09-07T09:31:34.445Z,95232
2017-09-07T09:32:44.715Z,95104
2017-09-07T09:33:55.244Z,34176
2017-09-07T09:35:05.192Z,34208
2017-09-07T09:36:15.477Z,22080
2017-09-07T09:37:25.733Z,27200
2017-09-07T09:38:36.075Z,64352
2017-09-07T09:39:46.580Z,36160
2017-09-07T09:40:55.893Z,96384
2017-09-07T09:42:06.155Z,22496
2017-09-07T09:43:16.435Z,28160
2017-09-07T09:44:26.382Z,92832
2017-09-07T09:45:36.895Z,103104
2017-09-07T09:46:46.831Z,101344
2017-09-07T09:47:57.102Z,30752
2017-09-07T09:49:07.394Z,45408
2017-09-07T09:50:17.689Z,42528
2017-09-07T09:51:28.262Z,30208
2017-09-07T09:52:38.221Z,32512
2017-09-07T09:53:48.165Z,58656
2017-09-07T09:54:58.537Z,47648
2017-09-07T09:56:08.802Z,47200
2017-09-07T09:57:19.016Z,39648
2017-09-07T09:58:28.969Z,38144
2017-09-07T09:59:39.257Z,33728
2017-09-07T10:00:49.173Z,51200
2017-09-07T10:01:59.458Z,23712
2017-09-07T10:03:09.978Z,19424
2017-09-07T10:04:20.139Z,14688
2017-09-07T10:05:29.779Z,10984
2017-09-07T10:06:39.729Z,9788
2017-09-07T10:07:49.984Z,10380
2017-09-07T10:09:00.508Z,11388
2017-09-07T10:10:10.772Z,12276
2017-09-07T10:11:21.046Z,12400
2017-09-07T10:12:31.340Z,11324
2017-09-07T10:13:41.301Z,12096
2017-09-07T10:14:51.837Z,14680
2017-09-07T10:16:01.801Z,20416
2017-09-07T10:17:12.074Z,26720
2017-09-07T10:18:22.362Z,32544
2017-09-07T10:19:32.658Z,37920
2017-09-07T10:20:42.577Z,51808
2017-09-07T10:21:52.851Z,41184
2017-09-07T10:23:03.118Z,60224
2017-09-07T10:24:13.394Z,48416
2017-09-07T10:25:23.660Z,55520
2017-09-07T10:26:33.559Z,77696
2017-09-07T10:27:43.874Z,40576
2017-09-07T10:28:53.884Z,20832
2017-09-07T10:30:04.172Z,11316
2017-09-07T10:31:14.439Z,8816
2017-09-07T10:32:24.984Z,8788
2017-09-07T10:33:34.984Z,9796
2017-09-07T10:34:44.957Z,11280
2017-09-07T10:35:55.315Z,13420
2017-09-07T10:37:05.282Z,14892
2017-09-07T10:38:15.484Z,13860
2017-09-07T10:39:25.774Z,12000
2017-09-07T10:40:36.080Z,12168
2017-09-07T10:41:46.391Z,13996
2017-09-07T10:42:56.010Z,17536
2017-09-07T10:44:06.534Z,22528
2017-09-07T10:45:16.790Z,26944
2017-09-07T10:46:27.058Z,29664
2017-09-07T10:47:36.682Z,33088
2017-09-07T10:48:46.771Z,37504
2017-09-07T10:49:57.453Z,42016
2017-09-07T10:51:07.708Z,47360
2017-09-07T10:52:17.967Z,85824
2017-09-07T10:53:27.923Z,84000
2017-09-07T10:54:38.199Z,102880
2017-09-07T10:55:48.737Z,148288
2017-09-07T10:56:59.305Z,56160
2017-09-07T10:58:09.602Z,46112
2017-09-07T10:59:19.901Z,34304
2017-09-07T11:00:29.844Z,27232
2017-09-07T11:01:40.362Z,21760
2017-09-07T11:02:50.643Z,16020
2017-09-07T11:04:00.900Z,13076
2017-09-07T11:05:11.155Z,12228
2017-09-07T11:06:21.481Z,9028
2017-09-07T11:07:31.691Z,8652
2017-09-07T11:08:41.948Z,13284
2017-09-07T11:09:52.200Z,19712
2017-09-07T11:11:02.479Z,26720
2017-09-07T11:12:12.437Z,30016
2017-09-07T11:13:22.979Z,41920
2017-09-07T11:14:33.238Z,44192
2017-09-07T11:15:43.512Z,52224
2017-09-07T11:16:53.764Z,64576
2017-09-07T11:18:03.965Z,58240
2017-09-07T11:19:14.173Z,51936
2017-09-07T11:20:24.449Z,47232
2017-09-07T11:21:34.392Z,40544
2017-09-07T11:22:44.673Z,36512
2017-09-07T11:23:54.627Z,26944
2017-09-07T11:25:05.170Z,22112
2017-09-07T11:26:15.423Z,18912
2017-09-07T11:27:25.679Z,18688
2017-09-07T11:28:35.622Z,20192
2017-09-07T11:29:45.562Z,20736
2017-09-07T11:30:56.072Z,20032
2017-09-07T11:32:06.329Z,20032
2017-09-07T11:33:16.601Z,22528
2017-09-07T11:34:26.858Z,21664
2017-09-07T11:35:37.132Z,18912
2017-09-07T11:36:47.644Z,13992
2017-09-07T11:37:57.925Z,11204
2017-09-07T11:39:08.171Z,12756
2017-09-07T11:40:18.125Z,10620
2017-09-07T11:41:28.063Z,10640
2017-09-07T11:42:38.581Z,12052
2017-09-07T11:43:48.521Z,10984
2017-09-07T11:44:58.778Z,8196
2017-09-07T11:46:08.719Z,5104
2017-09-07T11:47:18.677Z,3932
2017-09-07T11:48:29.193Z,5092
2017-09-07T11:49:39.467Z,8284
2017-09-07T11:50:49.737Z,12116
2017-09-07T11:51:59.981Z,14672
2017-09-07T11:53:10.243Z,15372
2017-09-07T11:54:20.761Z,16608
2017-09-07T11:55:31.023Z,19136
2017-09-07T11:56:41.278Z,19968
2017-09-07T11:57:51.539Z,19712
2017-09-07T11:59:01.499Z,19296
2017-09-07T12:00:12.002Z,18784
2017-09-07T12:01:21.977Z,18432
2017-09-07T12:02:32.271Z,19872
2017-09-07T12:03:42.227Z,21344
2017-09-07T12:04:51.542Z,20640
2017-09-07T12:06:01.109Z,19104
2017-09-07T12:07:11.374Z,17600
2017-09-07T12:08:21.019Z,17028
2017-09-07T12:09:30.970Z,18336
2017-09-07T12:10:40.935Z,20032
2017-09-07T12:11:51.459Z,21504
2017-09-07T12:13:01.788Z,23104
2017-09-07T12:14:12.075Z,25568
2017-09-07T12:15:21.085Z,25984
2017-09-07T12:16:31.366Z,23616
2017-09-07T12:17:41.240Z,20032
2017-09-07T12:18:51.178Z,16808
2017-09-07T12:20:01.132Z,16460
2017-09-07T12:21:10.761Z,18464
2017-09-07T12:22:20.713Z,20448
2017-09-07T12:23:31.245Z,21152
2017-09-07T12:24:41.544Z,20896
2017-09-07T12:25:51.497Z,20832
2017-09-07T12:27:01.778Z,19520
2017-09-07T12:28:12.082Z,19104
2017-09-07T12:29:22.592Z,22368
2017-09-07T12:30:33.131Z,25056
2017-09-07T12:31:43.397Z,24224
2017-09-07T12:32:53.702Z,22912
2017-09-07T12:34:03.999Z,21792
2017-09-07T12:35:14.637Z,19328
2017-09-07T12:36:24.947Z,16292
2017-09-07T12:37:35.248Z,16428
2017-09-07T12:38:45.203Z,21472
2017-09-07T12:39:55.198Z,25280
2017-09-07T12:41:05.704Z,26432
2017-09-07T12:42:15.676Z,23328
2017-09-07T12:43:25.956Z,21120
2017-09-07T12:44:35.909Z,21472
2017-09-07T12:45:45.873Z,21568
2017-09-07T12:46:55.771Z,21920
2017-09-07T12:48:05.777Z,21824
2017-09-07T12:49:16.118Z,23232
2017-09-07T12:50:26.469Z,27648
2017-09-07T12:51:36.432Z,32832
2017-09-07T12:52:47.024Z,33888
2017-09-07T12:53:56.994Z,32672
2017-09-07T12:55:06.968Z,30528
2017-09-07T12:56:17.282Z,29792
2017-09-07T12:57:27.610Z,31200
2017-09-07T12:58:37.842Z,34144
2017-09-07T12:59:48.174Z,39040
2017-09-07T13:00:58.437Z,45760
2017-09-07T13:02:08.761Z,59136
2017-09-07T13:03:19.041Z,61632
2017-09-07T13:04:29.593Z,72288
2017-09-07T13:05:39.230Z,71712
2017-09-07T13:06:49.532Z,65280
2017-09-07T13:07:59.820Z,45536
2017-09-07T13:09:10.135Z,44256
2017-09-07T13:10:20.707Z,50400
2017-09-07T13:11:30.668Z,45152
2017-09-07T13:12:40.933Z,34912
2017-09-07T13:13:51.224Z,25280
2017-09-07T13:15:01.165Z,18688
2017-09-07T13:16:11.698Z,16656
2017-09-07T13:17:21.961Z,19488
2017-09-07T13:18:32.223Z,20224
2017-09-07T13:19:42.199Z,19264
2017-09-07T13:20:52.146Z,19360
2017-09-07T13:22:02.359Z,23616
2017-09-07T13:23:12.005Z,23488
2017-09-07T13:24:21.955Z,22656
2017-09-07T13:25:32.227Z,20672
2017-09-07T13:26:42.183Z,18176
2017-09-07T13:27:52.707Z,14904
2017-09-07T13:29:02.970Z,14132
2017-09-07T13:30:13.237Z,13908
2017-09-07T13:31:23.490Z,12852
2017-09-07T13:32:33.750Z,10516
2017-09-07T13:33:43.653Z,9708
2017-09-07T13:34:53.920Z,8740
2017-09-07T13:36:04.201Z,7044
2017-09-07T13:37:13.838Z,7852
2017-09-07T13:38:23.530Z,9172
2017-09-07T13:39:34.055Z,9872
2017-09-07T13:40:44.336Z,10456
2017-09-07T13:41:54.596Z,11976
2017-09-07T13:43:04.875Z,12984
2017-09-07T13:44:15.144Z,15312
2017-09-07T13:45:25.652Z,17888
2017-09-07T13:46:35.611Z,18784
2017-09-07T13:47:45.555Z,19008
2017-09-07T13:48:55.505Z,18048
2017-09-07T13:50:05.796Z,18688
2017-09-07T13:51:16.322Z,18816
2017-09-07T13:52:26.284Z,18592
2017-09-07T13:53:36.260Z,18656
2017-09-07T13:54:46.524Z,18784
2017-09-07T13:55:56.826Z,18944
2017-09-07T13:57:07.345Z,18432
2017-09-07T13:58:17.614Z,18016
2017-09-07T13:59:27.567Z,18304
2017-09-07T14:00:37.830Z,18304
2017-09-07T14:01:47.459Z,17472
2017-09-07T14:02:57.651Z,16836
2017-09-07T14:04:07.603Z,17696
2017-09-07T14:05:17.269Z,18432
2017-09-07T14:06:27.519Z,19552
2017-09-07T14:07:37.780Z,19968
2017-09-07T14:08:48.321Z,19648
2017-09-07T14:09:57.960Z,19520
2017-09-07T14:11:07.905Z,23072
2017-09-07T14:12:17.868Z,26976
2017-09-07T14:13:28.144Z,30208
2017-09-07T14:14:38.660Z,31648
2017-09-07T14:15:48.926Z,33760
2017-09-07T14:16:58.865Z,35040
2017-09-07T14:18:09.130Z,48000
2017-09-07T14:19:19.077Z,47008
2017-09-07T14:20:29.591Z,57728
2017-09-07T14:21:39.846Z,47168
2017-09-07T14:22:49.797Z,42848
2017-09-07T14:24:00.090Z,35168
2017-09-07T14:25:10.028Z,32128
2017-09-07T14:26:20.541Z,22720
2017-09-07T14:27:30.802Z,16984
2017-09-07T14:28:41.071Z,13924
2017-09-07T14:29:51.033Z,11908
2017-09-07T14:31:01.303Z,10300
2017-09-07T14:32:11.829Z,8640
2017-09-07T14:33:22.088Z,7444
2017-09-07T14:34:32.353Z,6744
2017-09-07T14:35:42.621Z,6360
2017-09-07T14:36:52.861Z,6120
2017-09-07T14:38:03.367Z,5784
2017-09-07T14:39:13.308Z,5396
2017-09-07T14:40:23.555Z,4756
2017-09-07T14:41:33.496Z,4112
2017-09-07T14:42:43.764Z,3716
2017-09-07T14:43:54.267Z,3620
2017-09-07T14:45:04.516Z,3692
2017-09-07T14:46:14.473Z,3892
2017-09-07T14:47:24.422Z,4324
2017-09-07T14:48:34.683Z,4896
2017-09-07T14:49:45.187Z,5576
2017-09-07T14:50:54.801Z,6388
2017-09-07T14:52:04.740Z,7412
2017-09-07T14:53:14.698Z,8820
2017-09-07T14:54:24.956Z,10392
2017-09-07T14:55:35.494Z,11760
2017-09-07T14:56:45.752Z,13192
2017-09-07T14:57:56.018Z,14684
2017-09-07T14:59:05.970Z,15272
2017-09-07T15:00:16.248Z,14316
2017-09-07T15:01:26.760Z,14432
2017-09-07T15:02:37.023Z,14668
2017-09-07T15:03:47.268Z,14968
2017-09-07T15:04:57.218Z,15700
2017-09-07T15:06:07.146Z,17472
2017-09-07T15:07:17.652Z,19104
2017-09-07T15:08:27.591Z,20000
2017-09-07T15:09:37.863Z,19776
2017-09-07T15:10:48.148Z,19296
2017-09-07T15:11:58.114Z,18752
2017-09-07T15:13:08.645Z,17600
2017-09-07T15:14:18.909Z,15804
2017-09-07T15:15:28.859Z,15040
2017-09-07T15:16:38.796Z,14900
2017-09-07T15:17:48.739Z,15520
2017-09-07T15:18:58.946Z,17184
2017-09-07T15:20:09.220Z,18016
2017-09-07T15:21:19.182Z,18208
2017-09-07T15:22:29.454Z,19712
2017-09-07T15:23:39.395Z,27008
2017-09-07T15:24:49.915Z,22688
2017-09-07T15:26:00.181Z,22080
2017-09-07T15:27:10.149Z,21312
2017-09-07T15:28:20.406Z,20640
2017-09-07T15:29:30.668Z,19904
2017-09-07T15:30:41.188Z,18752
2017-09-07T15:31:51.451Z,17408
2017-09-07T15:33:01.080Z,15900
2017-09-07T15:34:11.344Z,14940
2017-09-07T15:35:21.609Z,14484
2017-09-07T15:36:32.147Z,14264
2017-09-07T15:37:42.408Z,14000
2017-09-07T15:38:52.686Z,14284
2017-09-07T15:40:02.959Z,13612
2017-09-07T15:41:12.904Z,13136
2017-09-07T15:42:23.421Z,12576
2017-09-07T15:43:33.048Z,12196